createdAt,value
2024-05-09T00:00:08.322Z,138.22
2024-05-09T00:01:06.427Z,138.39
2024-05-09T00:02:06.430Z,138.73
2024-05-09T00:03:06.461Z,139.46
2024-05-09T00:04:06.513Z,140.82
2024-05-09T00:05:06.542Z,140.70
2024-05-09T00:06:06.424Z,137.66
2024-05-09T00:07:06.456Z,139.73
2024-05-09T00:08:06.586Z,140.23
2024-05-09T00:09:06.426Z,138.56
2024-05-09T00:10:11.622Z,136.77
2024-05-09T00:11:07.482Z,137.01
2024-05-09T00:12:06.545Z,137.57
2024-05-09T00:13:06.875Z,137.64
2024-05-09T00:14:06.451Z,138.73
2024-05-09T00:15:06.433Z,139.68
2024-05-09T00:16:06.428Z,139.78
2024-05-09T00:17:06.514Z,138.49
2024-05-09T00:18:07.374Z,138.45
2024-05-09T00:19:06.551Z,137.56
2024-05-09T00:20:14.286Z,138.42
2024-05-09T00:21:07.573Z,138.56
2024-05-09T00:22:06.450Z,138.58
2024-05-09T00:23:06.512Z,139.00
2024-05-09T00:24:06.467Z,137.61
2024-05-09T00:25:06.457Z,136.68
2024-05-09T00:26:06.530Z,139.38
2024-05-09T00:27:06.511Z,137.66
2024-05-09T00:28:06.466Z,137.91
2024-05-09T00:29:06.530Z,134.62
2024-05-09T00:30:07.414Z,135.80
2024-05-09T00:31:06.435Z,137.68
2024-05-09T00:32:06.541Z,137.83
2024-05-09T00:33:07.895Z,133.59
2024-05-09T00:34:06.507Z,135.93
2024-05-09T00:35:06.491Z,137.17
2024-05-09T00:36:06.465Z,134.79
2024-05-09T00:37:06.504Z,135.48
2024-05-09T00:38:06.721Z,137.62
2024-05-09T00:39:06.501Z,134.57
2024-05-09T00:40:09.556Z,136.58
2024-05-09T00:41:07.558Z,136.73
2024-05-09T00:42:06.480Z,137.07
2024-05-09T00:43:06.546Z,136.53
2024-05-09T00:44:06.565Z,136.00
2024-05-09T00:45:06.514Z,135.90
2024-05-09T00:46:06.471Z,138.53
2024-05-09T00:47:06.677Z,134.26
2024-05-09T00:48:08.178Z,135.29
2024-05-09T00:49:06.535Z,135.75
2024-05-09T00:50:10.134Z,135.49
2024-05-09T00:51:07.607Z,135.75
2024-05-09T00:52:06.526Z,136.17
2024-05-09T00:53:06.952Z,135.74
2024-05-09T00:54:06.519Z,135.76
2024-05-09T00:55:06.509Z,135.98
2024-05-09T00:56:07.238Z,135.04
2024-05-09T00:57:06.560Z,133.39
2024-05-09T00:58:06.533Z,133.05
2024-05-09T00:59:06.506Z,132.93
2024-05-09T01:00:12.215Z,134.04
2024-05-09T01:01:07.566Z,134.12
2024-05-09T01:02:06.615Z,134.30
2024-05-09T01:03:06.873Z,133.26
2024-05-09T01:04:06.576Z,132.77
2024-05-09T01:05:06.618Z,134.08
2024-05-09T01:06:06.534Z,132.68
2024-05-09T01:07:06.571Z,130.14
2024-05-09T01:08:06.644Z,130.88
2024-05-09T01:09:06.547Z,130.86
2024-05-09T01:10:11.740Z,129.23
2024-05-09T01:11:07.586Z,129.47
2024-05-09T01:12:06.620Z,129.80
2024-05-09T01:13:07.064Z,131.08
2024-05-09T01:14:06.598Z,130.96
2024-05-09T01:15:06.531Z,130.48
2024-05-09T01:16:06.540Z,129.54
2024-05-09T01:17:06.608Z,128.45
2024-05-09T01:18:06.775Z,130.08
2024-05-09T01:19:06.659Z,127.68
2024-05-09T01:20:10.770Z,128.15
2024-05-09T01:21:07.604Z,128.39
2024-05-09T01:22:06.653Z,128.54
2024-05-09T01:23:06.604Z,129.49
2024-05-09T01:24:06.564Z,130.18
2024-05-09T01:25:06.569Z,130.17
2024-05-09T01:26:06.658Z,129.88
2024-05-09T01:27:06.578Z,130.71
2024-05-09T01:28:06.611Z,129.92
2024-05-09T01:29:06.641Z,126.29
2024-05-09T01:30:09.555Z,127.82
2024-05-09T01:31:07.586Z,127.97
2024-05-09T01:32:06.764Z,128.42
2024-05-09T01:33:08.823Z,128.60
2024-05-09T01:34:06.666Z,127.97
2024-05-09T01:35:06.638Z,128.04
2024-05-09T01:36:06.596Z,128.57
2024-05-09T01:37:06.618Z,129.14
2024-05-09T01:38:06.729Z,127.39
2024-05-09T01:39:06.589Z,128.96
2024-05-09T01:40:09.725Z,126.45
2024-05-09T01:41:07.624Z,126.68
2024-05-09T01:42:06.608Z,127.28
2024-05-09T01:43:06.816Z,127.29
2024-05-09T01:44:06.624Z,128.13
2024-05-09T01:45:06.602Z,129.29
2024-05-09T01:46:06.598Z,127.67
2024-05-09T01:47:06.706Z,127.47
2024-05-09T01:48:06.977Z,129.66
2024-05-09T01:49:06.914Z,126.94
2024-05-09T01:50:09.111Z,125.52
2024-05-09T01:51:06.715Z,125.73
2024-05-09T01:52:06.619Z,125.90
2024-05-09T01:53:06.718Z,124.46
2024-05-09T01:54:06.618Z,126.73
2024-05-09T01:55:06.979Z,126.77
2024-05-09T01:56:06.703Z,125.98
2024-05-09T01:57:06.638Z,128.17
2024-05-09T01:58:06.606Z,125.16
2024-05-09T01:59:06.798Z,126.63
2024-05-09T02:00:07.928Z,126.19
2024-05-09T02:01:06.670Z,127.03
2024-05-09T02:02:06.754Z,125.20
2024-05-09T02:03:06.869Z,125.56
2024-05-09T02:04:06.981Z,125.22
2024-05-09T02:05:06.920Z,124.09
2024-05-09T02:06:06.857Z,125.20
2024-05-09T02:07:06.714Z,127.44
2024-05-09T02:08:06.666Z,123.72
2024-05-09T02:09:06.658Z,124.61
2024-05-09T02:10:13.738Z,124.15
2024-05-09T02:11:07.731Z,124.36
2024-05-09T02:12:06.877Z,124.62
2024-05-09T02:13:06.659Z,124.71
2024-05-09T02:14:06.684Z,124.67
2024-05-09T02:15:06.650Z,124.14
2024-05-09T02:16:06.674Z,124.84
2024-05-09T02:17:06.771Z,125.69
2024-05-09T02:18:06.962Z,123.16
2024-05-09T02:19:06.741Z,123.58
2024-05-09T02:20:06.735Z,122.72
2024-05-09T02:21:06.816Z,120.96
2024-05-09T02:22:06.690Z,121.80
2024-05-09T02:23:07.224Z,122.04
2024-05-09T02:24:06.671Z,122.81
2024-05-09T02:25:06.688Z,121.19
2024-05-09T02:26:06.789Z,121.23
2024-05-09T02:27:06.746Z,121.17
2024-05-09T02:28:06.685Z,122.05
2024-05-09T02:29:06.757Z,119.53
2024-05-09T02:30:18.305Z,122.56
2024-05-09T02:31:07.695Z,122.67
2024-05-09T02:32:07.000Z,122.70
2024-05-09T02:33:07.153Z,122.51
2024-05-09T02:34:06.836Z,122.61
2024-05-09T02:35:06.740Z,121.86
2024-05-09T02:36:06.676Z,120.55
2024-05-09T02:37:06.747Z,122.47
2024-05-09T02:38:06.820Z,120.18
2024-05-09T02:39:06.688Z,120.98
2024-05-09T02:40:09.265Z,122.16
2024-05-09T02:41:06.747Z,122.29
2024-05-09T02:42:06.725Z,122.49
2024-05-09T02:43:07.118Z,121.08
2024-05-09T02:44:06.735Z,122.33
2024-05-09T02:45:06.724Z,119.01
2024-05-09T02:46:06.744Z,119.84
2024-05-09T02:47:06.942Z,120.69
2024-05-09T02:48:07.111Z,119.91
2024-05-09T02:49:06.812Z,118.71
2024-05-09T02:50:08.212Z,119.91
2024-05-09T02:51:06.858Z,121.12
2024-05-09T02:52:06.727Z,118.51
2024-05-09T02:53:06.773Z,120.97
2024-05-09T02:54:06.735Z,119.36
2024-05-09T02:55:06.735Z,117.46
2024-05-09T02:56:06.804Z,118.45
2024-05-09T02:57:06.788Z,119.44
2024-05-09T02:58:06.764Z,118.62
2024-05-09T02:59:06.811Z,120.19
2024-05-09T03:00:14.943Z,117.64
2024-05-09T03:01:07.780Z,117.81
2024-05-09T03:02:06.834Z,118.29
2024-05-09T03:03:07.055Z,118.96
2024-05-09T03:04:06.953Z,118.78
2024-05-09T03:05:06.781Z,120.69
2024-05-09T03:06:06.776Z,118.87
2024-05-09T03:07:06.809Z,120.56
2024-05-09T03:08:06.839Z,118.39
2024-05-09T03:09:06.786Z,117.24
2024-05-09T03:10:12.232Z,118.04
2024-05-09T03:11:07.881Z,118.16
2024-05-09T03:12:06.883Z,118.20
2024-05-09T03:13:06.801Z,118.49
2024-05-09T03:14:06.924Z,116.95
2024-05-09T03:15:06.780Z,119.16
2024-05-09T03:16:06.783Z,117.88
2024-05-09T03:17:06.981Z,117.78
2024-05-09T03:18:07.310Z,117.10
2024-05-09T03:19:06.841Z,117.71
2024-05-09T03:20:11.666Z,117.47
2024-05-09T03:21:07.812Z,117.57
2024-05-09T03:22:06.793Z,117.60
2024-05-09T03:23:06.866Z,118.08
2024-05-09T03:24:06.847Z,117.84
2024-05-09T03:25:06.792Z,118.24
2024-05-09T03:26:06.882Z,117.36
2024-05-09T03:27:06.856Z,116.96
2024-05-09T03:28:06.835Z,118.19
2024-05-09T03:29:06.895Z,115.06
2024-05-09T03:30:07.667Z,115.35
2024-05-09T03:31:06.833Z,117.84
2024-05-09T03:32:06.916Z,116.31
2024-05-09T03:33:07.118Z,117.39
2024-05-09T03:34:06.889Z,115.16
2024-05-09T03:35:06.865Z,115.89
2024-05-09T03:36:09.812Z,114.38
2024-05-09T03:37:06.897Z,114.61
2024-05-09T03:38:06.861Z,115.22
2024-05-09T03:39:06.845Z,115.79
2024-05-09T03:40:09.420Z,116.76
2024-05-09T03:41:08.154Z,114.66
2024-05-09T03:42:06.869Z,115.10
2024-05-09T03:43:06.857Z,115.25
2024-05-09T03:44:06.925Z,116.08
2024-05-09T03:45:06.989Z,115.39
2024-05-09T03:46:06.854Z,113.64
2024-05-09T03:47:07.012Z,114.01
2024-05-09T03:48:06.957Z,116.37
2024-05-09T03:49:06.979Z,114.99
2024-05-09T03:50:14.983Z,115.34
2024-05-09T03:51:07.991Z,115.54
2024-05-09T03:52:06.896Z,115.54
2024-05-09T03:53:06.949Z,115.95
2024-05-09T03:54:06.866Z,115.86
2024-05-09T03:55:06.861Z,115.72
2024-05-09T03:56:06.880Z,113.10
2024-05-09T03:57:06.893Z,114.35
2024-05-09T03:58:06.893Z,113.50
2024-05-09T03:59:06.902Z,114.51
2024-05-09T04:00:14.475Z,114.84
2024-05-09T04:01:07.997Z,114.96
2024-05-09T04:02:06.975Z,115.32
2024-05-09T04:03:09.016Z,115.04
2024-05-09T04:04:06.895Z,114.97
2024-05-09T04:05:06.904Z,115.19
2024-05-09T04:06:06.903Z,114.32
2024-05-09T04:07:06.940Z,113.65
2024-05-09T04:08:07.021Z,114.60
2024-05-09T04:09:06.901Z,111.83
2024-05-09T04:10:11.044Z,113.31
2024-05-09T04:11:07.063Z,113.46
2024-05-09T04:12:06.999Z,113.78
2024-05-09T04:13:06.921Z,113.46
2024-05-09T04:14:06.905Z,113.91
2024-05-09T04:15:09.660Z,113.88
2024-05-09T04:16:07.926Z,113.51
2024-05-09T04:17:06.978Z,113.70
2024-05-09T04:18:07.291Z,114.12
2024-05-09T04:19:07.106Z,113.92
2024-05-09T04:20:08.617Z,115.16
2024-05-09T04:21:06.975Z,113.38
2024-05-09T04:22:06.959Z,113.49
2024-05-09T04:23:08.065Z,113.71
2024-05-09T04:24:06.916Z,115.02
2024-05-09T04:25:06.928Z,112.86
2024-05-09T04:26:06.959Z,112.92
2024-05-09T04:27:07.000Z,112.71
2024-05-09T04:28:06.949Z,110.80
2024-05-09T04:29:07.081Z,108.62
2024-05-09T04:30:10.106Z,111.81
2024-05-09T04:31:19.085Z,50.00
2024-05-09T04:32:19.106Z,50.00
2024-05-09T04:33:19.339Z,50.00
2024-05-09T04:34:19.106Z,50.00
2024-05-09T04:35:19.094Z,50.00
2024-05-09T04:36:19.069Z,52.54
2024-05-09T04:37:19.086Z,51.01
2024-05-09T04:38:19.153Z,50.46
2024-05-09T04:39:19.068Z,52.18
2024-05-09T04:40:27.813Z,50.52
2024-05-09T04:41:20.162Z,50.81
2024-05-09T04:42:19.117Z,51.40
2024-05-09T04:43:19.240Z,50.67
2024-05-09T04:44:19.186Z,51.12
2024-05-09T04:45:19.095Z,49.80
2024-05-09T04:46:19.091Z,52.75
2024-05-09T04:47:19.218Z,50.76
2024-05-09T04:48:19.288Z,50.86
2024-05-09T04:49:19.179Z,50.57
2024-05-09T04:50:29.035Z,50.15
2024-05-09T04:51:20.091Z,50.28
2024-05-09T04:52:19.187Z,50.33
2024-05-09T04:53:19.160Z,44.71
2024-05-09T04:55:19.098Z,40.95
2024-05-09T04:56:19.189Z,50.00
2024-05-09T04:57:19.112Z,50.00
2024-05-09T04:58:19.143Z,52.47
2024-05-09T04:59:19.166Z,51.19
2024-05-09T05:00:28.574Z,50.76
2024-05-09T05:01:20.139Z,50.99
2024-05-09T05:02:19.203Z,51.31
2024-05-09T05:03:19.380Z,49.05
2024-05-09T05:04:19.180Z,48.75
2024-05-09T05:05:19.234Z,44.32
2024-05-09T05:06:19.138Z,51.17
2024-05-09T05:07:19.117Z,50.00
2024-05-09T05:08:19.654Z,51.09
2024-05-09T05:09:19.148Z,52.49
2024-05-09T05:10:25.434Z,51.71
2024-05-09T05:11:20.235Z,51.90
2024-05-09T05:12:19.425Z,52.03
2024-05-09T05:13:20.377Z,51.27
2024-05-09T05:14:19.170Z,50.36
2024-05-09T05:15:19.159Z,50.26
2024-05-09T05:16:19.211Z,50.77
2024-05-09T05:17:19.267Z,51.75
2024-05-09T05:18:19.662Z,53.15
2024-05-09T05:19:19.349Z,51.84
2024-05-09T05:20:27.386Z,52.51
2024-05-09T05:21:20.494Z,52.65
2024-05-09T05:22:19.324Z,51.95
2024-05-09T05:23:19.380Z,52.85
2024-05-09T05:24:19.342Z,52.52
2024-05-09T05:25:19.322Z,53.40
2024-05-09T05:26:19.349Z,50.32
2024-05-09T05:27:19.350Z,52.34
2024-05-09T05:28:19.327Z,50.25
2024-05-09T05:29:20.809Z,51.19
2024-05-09T05:30:25.059Z,52.18
2024-05-09T05:31:20.369Z,52.33
2024-05-09T05:32:19.627Z,52.59
2024-05-09T05:33:19.933Z,53.34
2024-05-09T05:34:19.346Z,50.50
2024-05-09T05:35:19.420Z,52.84
2024-05-09T05:36:19.343Z,50.20
2024-05-09T05:37:19.340Z,53.15
2024-05-09T05:38:21.293Z,51.55
2024-05-09T05:39:19.343Z,53.56
2024-05-09T05:40:28.143Z,56.24
2024-05-09T05:41:20.428Z,56.39
2024-05-09T05:42:19.383Z,56.42
2024-05-09T05:43:19.406Z,54.73
2024-05-09T05:44:19.387Z,54.09
2024-05-09T05:45:19.343Z,53.40
2024-05-09T05:46:19.350Z,52.82
2024-05-09T05:47:19.409Z,53.30
2024-05-09T05:48:19.971Z,53.41
2024-05-09T05:49:19.631Z,53.96
2024-05-09T05:50:27.363Z,51.12
2024-05-09T05:51:20.464Z,51.31
2024-05-09T05:52:19.399Z,52.16
2024-05-09T05:53:19.602Z,51.72
2024-05-09T05:54:19.382Z,54.13
2024-05-09T05:55:19.374Z,53.80
2024-05-09T05:56:19.478Z,54.85
2024-05-09T05:57:19.389Z,54.42
2024-05-09T05:58:19.374Z,52.77
2024-05-09T05:59:19.514Z,53.76
2024-05-09T06:00:29.188Z,53.17
2024-05-09T06:01:20.436Z,53.32
2024-05-09T06:02:19.564Z,53.55
2024-05-09T06:03:19.453Z,52.75
2024-05-09T06:04:19.431Z,54.67
2024-05-09T06:05:19.443Z,52.02
2024-05-09T06:06:19.391Z,50.70
2024-05-09T06:07:19.397Z,52.19
2024-05-09T06:08:19.480Z,50.00
2024-05-09T06:09:19.398Z,53.46
2024-05-09T06:10:25.415Z,49.99
2024-05-09T06:11:20.520Z,50.18
2024-05-09T06:12:19.564Z,50.34
2024-05-09T06:13:19.416Z,50.85
2024-05-09T06:14:19.450Z,49.35
2024-05-09T06:15:19.407Z,49.88
2024-05-09T06:16:19.430Z,50.00
2024-05-09T06:17:19.517Z,52.94
2024-05-09T06:18:19.776Z,50.67
2024-05-09T06:19:20.515Z,52.96
2024-05-09T06:20:24.059Z,51.15
2024-05-09T06:21:20.564Z,51.36
2024-05-09T06:22:19.443Z,51.72
2024-05-09T06:23:19.497Z,52.59
2024-05-09T06:24:19.429Z,52.26
2024-05-09T06:25:19.447Z,52.23
2024-05-09T06:26:19.506Z,53.26
2024-05-09T06:27:19.445Z,51.03
2024-05-09T06:28:19.442Z,54.23
2024-05-09T06:29:19.496Z,52.93
2024-05-09T06:31:19.425Z,54.25
2024-05-09T06:32:19.625Z,52.22
2024-05-09T06:33:19.669Z,51.10
2024-05-09T06:34:19.628Z,53.72
2024-05-09T06:35:19.489Z,53.04
2024-05-09T06:36:19.424Z,52.32
2024-05-09T06:37:19.444Z,52.95
2024-05-09T06:38:19.558Z,51.53
2024-05-09T06:39:19.468Z,54.64
2024-05-09T06:40:25.676Z,51.81
2024-05-09T06:41:20.544Z,52.06
2024-05-09T06:42:19.449Z,52.39
2024-05-09T06:43:20.050Z,52.63
2024-05-09T06:44:19.701Z,52.58
2024-05-09T06:45:19.487Z,50.81
2024-05-09T06:46:19.464Z,51.52
2024-05-09T06:47:19.542Z,50.00
2024-05-09T06:48:20.063Z,50.57
2024-05-09T06:49:19.626Z,54.48
2024-05-09T06:50:24.015Z,53.51
2024-05-09T06:51:20.538Z,53.70
2024-05-09T06:52:19.505Z,53.61
2024-05-09T06:53:19.490Z,53.93
2024-05-09T06:54:19.454Z,49.51
2024-05-09T06:55:19.496Z,53.34
2024-05-09T06:56:19.509Z,52.34
2024-05-09T06:57:19.475Z,50.00
2024-05-09T06:58:19.511Z,53.36
2024-05-09T06:59:19.606Z,52.15
2024-05-09T07:00:27.438Z,53.81
2024-05-09T07:01:20.527Z,53.93
2024-05-09T07:02:19.551Z,54.33
2024-05-09T07:03:19.970Z,54.28
2024-05-09T07:04:19.584Z,55.34
2024-05-09T07:05:19.559Z,53.84
2024-05-09T07:06:19.477Z,54.15
2024-05-09T07:07:19.489Z,53.35
2024-05-09T07:08:19.848Z,54.41
2024-05-09T07:09:19.505Z,53.90
2024-05-09T07:10:28.368Z,53.19
2024-05-09T07:11:20.571Z,53.32
2024-05-09T07:12:19.581Z,53.71
2024-05-09T07:13:19.502Z,54.76
2024-05-09T07:14:19.505Z,54.28
2024-05-09T07:15:19.494Z,55.68
2024-05-09T07:16:19.518Z,52.58
2024-05-09T07:17:19.535Z,53.10
2024-05-09T07:18:20.416Z,53.62
2024-05-09T07:19:19.681Z,53.94
2024-05-09T07:20:27.816Z,52.32
2024-05-09T07:21:20.593Z,52.51
2024-05-09T07:22:19.566Z,52.86
2024-05-09T07:23:19.750Z,52.72
2024-05-09T07:24:19.501Z,53.19
2024-05-09T07:25:19.604Z,50.88
2024-05-09T07:26:19.671Z,51.80
2024-05-09T07:27:19.517Z,50.00
2024-05-09T07:28:19.773Z,52.89
2024-05-09T07:29:19.570Z,51.17
2024-05-09T07:30:26.985Z,52.05
2024-05-09T07:31:20.547Z,51.24
2024-05-09T07:32:19.652Z,49.31
2024-05-09T07:33:20.560Z,50.54
2024-05-09T07:34:19.977Z,48.42
2024-05-09T07:35:19.939Z,46.80
2024-05-09T07:36:19.835Z,50.58
2024-05-09T07:37:19.865Z,53.65
2024-05-09T07:38:20.117Z,50.43
2024-05-09T07:39:19.948Z,50.68
2024-05-09T07:40:28.607Z,52.20
2024-05-09T07:41:21.125Z,52.28
2024-05-09T07:42:19.967Z,47.34
2024-05-09T07:43:19.995Z,45.59
2024-05-09T07:44:20.023Z,41.77
2024-05-09T07:45:39.915Z,40.84
2024-05-09T07:48:29.268Z,46.37
2024-05-09T07:53:38.545Z,47.15
2024-05-09T07:54:21.139Z,50.04
2024-05-09T07:55:20.169Z,44.10
2024-05-09T07:56:22.507Z,38.46
2024-05-09T07:57:20.035Z,39.30
2024-05-09T07:58:20.003Z,40.43
2024-05-09T07:59:20.029Z,39.19
2024-05-09T08:00:26.827Z,36.96
2024-05-09T08:01:21.476Z,41.31
2024-05-09T08:02:20.207Z,36.66
2024-05-09T08:03:20.113Z,36.49
2024-05-09T08:04:21.319Z,34.19
2024-05-09T08:05:20.157Z,33.24
2024-05-09T08:06:20.036Z,50.00
2024-05-09T08:07:20.142Z,50.65
2024-05-09T08:08:20.274Z,50.44
2024-05-09T08:09:21.496Z,51.12
2024-05-09T08:10:24.659Z,50.00
2024-05-09T08:11:21.158Z,50.21
2024-05-09T08:12:20.120Z,50.74
2024-05-09T08:13:20.208Z,51.05
2024-05-09T08:14:20.114Z,50.38
2024-05-09T08:15:20.125Z,52.08
2024-05-09T08:16:20.263Z,53.88
2024-05-09T08:17:20.135Z,51.59
2024-05-09T08:18:20.347Z,50.81
2024-05-09T08:19:20.283Z,50.00
2024-05-09T08:20:30.091Z,52.54
2024-05-09T08:21:21.136Z,52.71
2024-05-09T08:22:20.207Z,52.62
2024-05-09T08:23:20.112Z,52.61
2024-05-09T08:24:20.132Z,53.95
2024-05-09T08:25:20.164Z,51.72
2024-05-09T08:26:20.123Z,51.61
2024-05-09T08:27:20.112Z,53.62
2024-05-09T08:28:20.181Z,52.53
2024-05-09T08:29:20.134Z,50.00
2024-05-09T08:30:25.384Z,52.19
2024-05-09T08:31:21.253Z,52.34
2024-05-09T08:32:20.176Z,52.32
2024-05-09T08:33:20.253Z,52.04
2024-05-09T08:34:20.291Z,52.86
2024-05-09T08:35:20.142Z,52.71
2024-05-09T08:36:20.172Z,53.39
2024-05-09T08:37:23.395Z,50.38
2024-05-09T08:38:21.156Z,50.63
2024-05-09T08:39:20.132Z,51.20
2024-05-09T08:40:28.099Z,52.15
2024-05-09T08:41:21.164Z,50.60
2024-05-09T08:42:20.143Z,50.89
2024-05-09T08:43:20.383Z,51.19
2024-05-09T08:44:20.158Z,51.58
2024-05-09T08:45:20.168Z,51.54
2024-05-09T08:46:20.354Z,55.27
2024-05-09T08:47:20.229Z,51.95
2024-05-09T08:48:20.391Z,52.11
2024-05-09T08:49:20.277Z,53.01
2024-05-09T08:50:29.252Z,51.87
2024-05-09T08:51:21.174Z,52.05
2024-05-09T08:52:20.183Z,52.52
2024-05-09T08:53:20.247Z,52.32
2024-05-09T08:54:20.188Z,53.79
2024-05-09T08:55:20.276Z,55.42
2024-05-09T08:56:20.181Z,55.91
2024-05-09T08:57:20.189Z,55.29
2024-05-09T08:58:20.601Z,53.90
2024-05-09T08:59:20.196Z,55.53
2024-05-09T09:00:29.593Z,52.55
2024-05-09T09:01:21.342Z,52.70
2024-05-09T09:02:20.328Z,52.56
2024-05-09T09:03:20.421Z,53.31
2024-05-09T09:04:20.294Z,54.09
2024-05-09T09:05:20.309Z,53.15
2024-05-09T09:06:20.194Z,50.24
2024-05-09T09:07:20.233Z,53.47
2024-05-09T09:08:20.254Z,54.25
2024-05-09T09:09:20.199Z,53.44
2024-05-09T09:10:29.036Z,52.28
2024-05-09T09:11:21.283Z,52.43
2024-05-09T09:12:20.198Z,51.67
2024-05-09T09:13:20.215Z,47.23
2024-05-09T09:14:20.207Z,48.60
2024-05-09T09:15:20.212Z,48.40
2024-05-09T09:16:20.340Z,53.91
2024-05-09T09:17:20.236Z,52.42
2024-05-09T09:18:20.275Z,50.82
2024-05-09T09:19:20.310Z,50.05
2024-05-09T09:20:26.357Z,50.85
2024-05-09T09:21:21.256Z,51.07
2024-05-09T09:22:20.248Z,51.58
2024-05-09T09:23:20.238Z,53.22
2024-05-09T09:24:20.224Z,54.23
2024-05-09T09:25:20.248Z,56.61
2024-05-09T09:26:20.223Z,64.83
2024-05-09T09:27:20.215Z,64.04
2024-05-09T09:28:20.270Z,59.62
2024-05-09T09:29:20.218Z,56.15
2024-05-09T09:30:31.765Z,56.40
2024-05-09T09:31:21.276Z,56.50
2024-05-09T09:32:20.379Z,56.65
2024-05-09T09:33:20.517Z,56.05
2024-05-09T09:34:20.344Z,53.74
2024-05-09T09:35:20.242Z,57.11
2024-05-09T09:36:20.258Z,52.40
2024-05-09T09:37:20.321Z,53.12
2024-05-09T09:38:20.274Z,50.00
2024-05-09T09:39:20.350Z,52.29
2024-05-09T09:40:22.341Z,51.03
2024-05-09T09:41:21.259Z,51.10
2024-05-09T09:42:20.255Z,50.81
2024-05-09T09:43:20.419Z,50.09
2024-05-09T09:44:20.286Z,50.71
2024-05-09T09:45:20.290Z,48.46
2024-05-09T09:46:20.333Z,51.30
2024-05-09T09:47:20.337Z,51.11
2024-05-09T09:48:20.504Z,51.45
2024-05-09T09:49:20.323Z,55.67
2024-05-09T09:50:27.362Z,55.47
2024-05-09T09:51:21.278Z,55.83
2024-05-09T09:52:20.383Z,56.57
2024-05-09T09:53:20.396Z,57.89
2024-05-09T09:54:20.315Z,58.07
2024-05-09T09:55:20.369Z,63.55
2024-05-09T09:56:20.335Z,62.13
2024-05-09T09:57:20.269Z,60.26
2024-05-09T09:58:20.378Z,63.00
2024-05-09T09:59:20.281Z,61.59
2024-05-09T10:00:26.816Z,61.91
2024-05-09T10:01:21.400Z,62.03
2024-05-09T10:02:20.441Z,62.26
2024-05-09T10:03:20.437Z,60.87
2024-05-09T10:04:20.390Z,63.39
2024-05-09T10:05:20.347Z,62.83
2024-05-09T10:06:20.335Z,56.73
2024-05-09T10:07:20.361Z,59.48
2024-05-09T10:08:20.302Z,55.81
2024-05-09T10:09:20.329Z,55.11
2024-05-09T10:10:27.067Z,50.49
2024-05-09T10:11:21.371Z,50.77
2024-05-09T10:12:20.352Z,51.46
2024-05-09T10:13:20.410Z,52.99
2024-05-09T10:14:20.316Z,55.15
2024-05-09T10:15:20.357Z,57.02
2024-05-09T10:16:20.409Z,57.04
2024-05-09T10:17:20.333Z,60.05
2024-05-09T10:18:20.393Z,63.49
2024-05-09T10:19:20.496Z,58.88
2024-05-09T10:20:24.719Z,56.87
2024-05-09T10:21:21.342Z,56.98
2024-05-09T10:22:20.374Z,57.38
2024-05-09T10:23:20.325Z,56.87
2024-05-09T10:24:20.337Z,54.23
2024-05-09T10:25:20.375Z,52.42
2024-05-09T10:26:20.346Z,51.53
2024-05-09T10:27:20.347Z,55.24
2024-05-09T10:28:20.381Z,56.28
2024-05-09T10:29:20.349Z,58.53
2024-05-09T10:30:26.116Z,56.82
2024-05-09T10:31:21.367Z,57.07
2024-05-09T10:32:20.426Z,57.47
2024-05-09T10:33:20.620Z,56.02
2024-05-09T10:34:20.723Z,55.50
2024-05-09T10:35:20.374Z,51.66
2024-05-09T10:36:20.332Z,52.46
2024-05-09T10:37:20.409Z,50.32
2024-05-09T10:38:20.803Z,57.80
2024-05-09T10:39:20.331Z,58.31
2024-05-09T10:40:26.397Z,56.85
2024-05-09T10:41:22.308Z,56.91
2024-05-09T10:42:20.362Z,54.29
2024-05-09T10:43:20.421Z,50.42
2024-05-09T10:44:20.352Z,54.11
2024-05-09T10:45:20.353Z,52.85
2024-05-09T10:46:20.577Z,57.87
2024-05-09T10:47:20.409Z,60.57
2024-05-09T10:48:20.456Z,59.10
2024-05-09T10:49:20.546Z,61.72
2024-05-09T10:50:28.069Z,60.92
2024-05-09T10:51:21.396Z,60.85
2024-05-09T10:52:20.433Z,61.02
2024-05-09T10:53:20.383Z,52.78
2024-05-09T10:54:20.388Z,52.96
2024-05-09T10:55:20.508Z,51.15
2024-05-09T10:56:20.374Z,50.92
2024-05-09T10:57:20.383Z,52.50
2024-05-09T10:58:20.431Z,54.51
2024-05-09T10:59:20.386Z,59.86
2024-05-09T11:00:27.565Z,60.62
2024-05-09T11:01:21.426Z,60.65
2024-05-09T11:02:20.480Z,60.55
2024-05-09T11:03:20.475Z,61.02
2024-05-09T11:04:20.563Z,60.67
2024-05-09T11:05:20.519Z,58.53
2024-05-09T11:06:20.396Z,58.05
2024-05-09T11:07:20.540Z,57.48
2024-05-09T11:08:20.408Z,52.62
2024-05-09T11:09:20.433Z,55.04
2024-05-09T11:10:27.405Z,54.63
2024-05-09T11:11:21.414Z,54.93
2024-05-09T11:12:22.857Z,54.83
2024-05-09T11:13:20.454Z,55.05
2024-05-09T11:14:20.415Z,56.37
2024-05-09T11:15:20.410Z,59.86
2024-05-09T11:16:21.046Z,56.27
2024-05-09T11:17:20.567Z,57.93
2024-05-09T11:18:24.227Z,60.83
2024-05-09T11:19:20.598Z,61.04
2024-05-09T11:20:26.915Z,61.06
2024-05-09T11:21:21.419Z,60.96
2024-05-09T11:22:20.449Z,61.54
2024-05-09T11:23:20.430Z,60.97
2024-05-09T11:24:20.433Z,62.25
2024-05-09T11:25:20.496Z,57.80
2024-05-09T11:26:20.431Z,61.44
2024-05-09T11:27:20.431Z,63.57
2024-05-09T11:28:20.471Z,66.46
2024-05-09T11:29:20.439Z,72.49
2024-05-09T11:30:27.043Z,73.16
2024-05-09T11:31:21.763Z,73.40
2024-05-09T11:32:20.477Z,74.54
2024-05-09T11:33:20.512Z,76.61
2024-05-09T11:34:20.536Z,79.96
2024-05-09T11:35:20.442Z,84.03
2024-05-09T11:36:20.466Z,84.50
2024-05-09T11:37:20.485Z,84.29
2024-05-09T11:38:20.846Z,84.91
2024-05-09T11:39:20.442Z,80.70
2024-05-09T11:40:25.426Z,84.81
2024-05-09T11:41:21.465Z,85.11
2024-05-09T11:42:20.450Z,84.18
2024-05-09T11:43:21.051Z,85.73
2024-05-09T11:44:20.464Z,88.44
2024-05-09T11:45:20.464Z,87.86
2024-05-09T11:46:20.590Z,87.16
2024-05-09T11:47:20.500Z,80.26
2024-05-09T11:48:20.687Z,80.57
2024-05-09T11:49:21.471Z,80.85
2024-05-09T11:50:27.141Z,85.34
2024-05-09T11:51:21.484Z,85.54
2024-05-09T11:52:20.560Z,86.01
2024-05-09T11:53:20.825Z,86.60
2024-05-09T11:54:21.324Z,85.89
2024-05-09T11:55:21.160Z,84.98
2024-05-09T11:56:20.494Z,79.93
2024-05-09T11:57:20.478Z,81.99
2024-05-09T11:58:20.567Z,85.42
2024-05-09T11:59:20.485Z,88.84
2024-05-09T12:00:29.173Z,93.24
2024-05-09T12:01:23.076Z,93.38
2024-05-09T12:02:20.655Z,94.01
2024-05-09T12:03:20.550Z,94.10
2024-05-09T12:04:20.689Z,94.42
2024-05-09T12:05:20.918Z,98.37
2024-05-09T12:06:20.513Z,96.90
2024-05-09T12:07:20.542Z,99.12
2024-05-09T12:08:20.520Z,101.64
2024-05-09T12:09:20.493Z,99.55
2024-05-09T12:10:26.026Z,100.14
2024-05-09T12:11:21.534Z,100.44
2024-05-09T12:12:20.523Z,100.87
2024-05-09T12:13:20.973Z,102.36
2024-05-09T12:14:20.552Z,105.53
2024-05-09T12:15:20.634Z,108.34
2024-05-09T12:16:20.739Z,110.01
2024-05-09T12:17:20.526Z,109.06
2024-05-09T12:18:20.544Z,112.59
2024-05-09T12:19:20.605Z,110.88
2024-05-09T12:20:28.562Z,110.64
2024-05-09T12:21:21.523Z,110.98
2024-05-09T12:22:20.572Z,111.06
2024-05-09T12:23:20.533Z,111.95
2024-05-09T12:24:20.551Z,113.01
2024-05-09T12:25:20.626Z,114.38
2024-05-09T12:26:20.564Z,115.75
2024-05-09T12:27:20.543Z,115.26
2024-05-09T12:28:20.837Z,120.40
2024-05-09T12:29:20.536Z,118.62
2024-05-09T12:30:32.491Z,117.06
2024-05-09T12:31:21.626Z,117.21
2024-05-09T12:32:20.576Z,117.47
2024-05-09T12:33:20.723Z,119.98
2024-05-09T12:34:20.625Z,123.05
2024-05-09T12:35:20.567Z,126.12
2024-05-09T12:36:20.541Z,129.80
2024-05-09T12:37:20.582Z,129.64
2024-05-09T12:38:20.880Z,131.97
2024-05-09T12:39:20.575Z,130.01
2024-05-09T12:40:30.670Z,132.90
2024-05-09T12:41:21.630Z,133.06
2024-05-09T12:42:27.161Z,133.08
2024-05-09T12:43:22.006Z,133.11
2024-05-09T12:44:20.604Z,133.89
2024-05-09T12:45:20.601Z,135.42
2024-05-09T12:46:20.743Z,138.70
2024-05-09T12:47:20.704Z,136.86
2024-05-09T12:48:20.779Z,142.60
2024-05-09T12:49:20.861Z,142.15
2024-05-09T12:50:29.153Z,140.71